createdAt,value
2023-02-05T00:00:44.438Z,9.50
2023-02-05T00:03:32.389Z,9.10
2023-02-05T00:06:00.330Z,8.10
2023-02-05T00:08:30.568Z,6.80
2023-02-05T00:10:58.421Z,10.70
2023-02-05T00:13:26.267Z,11.50
2023-02-05T00:15:54.143Z,7.40
2023-02-05T00:18:22.081Z,8.20
2023-02-05T00:20:50.009Z,6.60
2023-02-05T00:23:17.823Z,8.50
2023-02-05T00:25:45.766Z,10.50
2023-02-05T00:28:13.664Z,7.90
2023-02-05T00:30:42.125Z,8.30
2023-02-05T00:33:09.966Z,9.30
2023-02-05T00:35:37.936Z,6.90
2023-02-05T00:38:05.981Z,9.20
2023-02-05T00:40:33.969Z,7.90
2023-02-05T00:43:01.887Z,10.20
2023-02-05T00:45:35.432Z,10.80
2023-02-05T00:48:07.345Z,9.00
2023-02-05T00:50:36.328Z,10.70
2023-02-05T00:53:04.512Z,12.40
2023-02-05T00:55:32.962Z,8.40
2023-02-05T00:58:01.488Z,7.40
2023-02-05T01:00:29.490Z,7.20
2023-02-05T01:02:57.410Z,8.20
2023-02-05T01:05:25.335Z,6.70
2023-02-05T01:07:53.251Z,9.00
2023-02-05T01:10:21.275Z,8.20
2023-02-05T01:12:50.730Z,9.30
2023-02-05T01:15:20.034Z,8.70
2023-02-05T01:17:48.461Z,8.30
2023-02-05T01:20:16.841Z,7.60
2023-02-05T01:22:44.778Z,8.20
2023-02-05T01:25:12.707Z,9.10
2023-02-05T01:27:40.903Z,10.70
2023-02-05T01:30:12.013Z,10.50
2023-02-05T01:32:41.044Z,11.30
2023-02-05T01:35:09.378Z,11.70
2023-02-05T01:37:37.217Z,10.00
2023-02-05T01:40:06.172Z,10.80
2023-02-05T01:42:34.372Z,10.60
2023-02-05T01:45:29.639Z,12.70
2023-02-05T01:48:00.788Z,12.90
2023-02-05T01:50:42.358Z,11.00
2023-02-05T01:53:19.802Z,13.10
2023-02-05T01:56:04.773Z,11.50
2023-02-05T01:58:39.550Z,9.40
2023-02-05T02:01:08.087Z,10.10
2023-02-05T02:03:36.635Z,15.70
2023-02-05T02:06:05.048Z,15.10
2023-02-05T02:08:33.817Z,13.90
2023-02-05T02:11:06.332Z,17.30
2023-02-05T02:13:36.619Z,14.60
2023-02-05T02:16:07.937Z,14.40
2023-02-05T02:18:38.948Z,13.10
2023-02-05T02:21:56.535Z,16.70
2023-02-05T02:24:54.615Z,16.00
2023-02-05T02:27:37.401Z,15.60
2023-02-05T02:30:48.361Z,14.80
2023-02-05T02:33:39.191Z,13.60
2023-02-05T02:36:18.167Z,13.70
2023-02-05T02:38:57.915Z,17.50
2023-02-05T02:41:36.267Z,19.20
2023-02-05T02:44:24.508Z,14.80
2023-02-05T02:46:59.208Z,14.90
2023-02-05T02:49:53.176Z,17.70
2023-02-05T02:52:25.356Z,11.00
2023-02-05T02:54:59.426Z,16.30
2023-02-05T02:57:30.086Z,13.90
2023-02-05T03:00:03.032Z,16.20
2023-02-05T03:02:34.920Z,17.60
2023-02-05T03:05:11.679Z,16.30
2023-02-05T03:08:09.155Z,13.50
2023-02-05T03:10:48.336Z,14.20
2023-02-05T03:13:17.389Z,14.20
2023-02-05T03:15:46.896Z,13.00
2023-02-05T03:18:18.355Z,13.10
2023-02-05T03:21:00.952Z,12.20
2023-02-05T03:23:29.931Z,9.30
2023-02-05T03:25:57.987Z,7.40
2023-02-05T03:28:26.040Z,13.10
2023-02-05T03:31:23.228Z,16.70
2023-02-05T03:34:03.846Z,14.50
2023-02-05T03:37:16.276Z,15.80
2023-02-05T03:40:01.238Z,15.90
2023-02-05T03:43:04.191Z,16.40
2023-02-05T03:45:59.678Z,15.20
2023-02-05T03:48:33.422Z,12.40
2023-02-05T03:51:10.597Z,15.40
2023-02-05T03:54:18.126Z,12.50
2023-02-05T03:57:06.001Z,14.60
2023-02-05T03:59:37.051Z,15.30
2023-02-05T04:02:06.273Z,16.10
2023-02-05T04:04:34.352Z,13.50
2023-02-05T04:07:03.672Z,9.80
2023-02-05T04:09:31.544Z,18.20
2023-02-05T04:11:59.495Z,16.60
2023-02-05T04:14:27.437Z,15.30
2023-02-05T04:16:55.340Z,16.40
2023-02-05T04:19:23.193Z,18.90
2023-02-05T04:21:51.144Z,16.40
2023-02-05T04:24:19.137Z,16.40
2023-02-05T04:26:47.269Z,14.80
2023-02-05T04:29:15.522Z,14.70
2023-02-05T04:31:43.521Z,14.10
2023-02-05T04:34:11.556Z,11.10
2023-02-05T04:36:39.628Z,16.60
2023-02-05T04:39:07.491Z,10.60
2023-02-05T04:41:37.728Z,17.40
2023-02-05T04:44:06.871Z,14.20
2023-02-05T04:46:34.875Z,12.10
2023-02-05T04:49:02.776Z,8.70
2023-02-05T04:51:30.587Z,9.20
2023-02-05T04:53:58.582Z,13.40
2023-02-05T04:56:26.805Z,9.60
2023-02-05T04:58:55.076Z,9.50
2023-02-05T05:01:24.489Z,9.80
2023-02-05T05:03:52.403Z,10.10
2023-02-05T05:06:20.388Z,9.50
2023-02-05T05:08:48.553Z,7.70
2023-02-05T05:11:19.612Z,12.60
2023-02-05T05:13:49.485Z,10.00
2023-02-05T05:16:17.431Z,14.60
2023-02-05T05:18:45.340Z,11.00
2023-02-05T05:21:13.463Z,14.30
2023-02-05T05:23:41.349Z,9.90
2023-02-05T05:26:12.615Z,17.00
2023-02-05T05:28:40.563Z,8.00
2023-02-05T05:31:17.369Z,8.20
2023-02-05T05:33:45.881Z,13.70
2023-02-05T05:36:15.012Z,9.30
2023-02-05T05:38:43.247Z,10.60
2023-02-05T05:41:40.968Z,8.00
2023-02-05T05:44:11.385Z,12.20
2023-02-05T05:46:39.483Z,8.40
2023-02-05T05:49:07.646Z,8.10
2023-02-05T05:51:35.501Z,12.10
2023-02-05T05:54:03.627Z,10.30
2023-02-05T05:56:31.470Z,5.10
2023-02-05T05:58:59.296Z,7.70
2023-02-05T06:01:28.524Z,10.60
2023-02-05T06:03:56.394Z,9.00
2023-02-05T06:06:24.389Z,10.90
2023-02-05T06:08:52.216Z,13.50
2023-02-05T06:11:20.396Z,9.20
2023-02-05T06:13:48.317Z,12.70
2023-02-05T06:16:16.288Z,11.00
2023-02-05T06:18:44.386Z,8.60
2023-02-05T06:21:12.247Z,9.00
2023-02-05T06:23:40.213Z,15.20
2023-02-05T06:26:08.385Z,13.10
2023-02-05T06:28:36.365Z,12.90
2023-02-05T06:31:04.673Z,10.10
2023-02-05T06:33:32.651Z,12.20
2023-02-05T06:36:00.740Z,12.80
2023-02-05T06:38:28.802Z,11.80
2023-02-05T06:40:56.667Z,9.90
2023-02-05T06:43:24.752Z,14.90
2023-02-05T06:45:53.383Z,15.80
2023-02-05T06:48:22.311Z,14.30
2023-02-05T06:50:50.428Z,9.10
2023-02-05T06:53:18.427Z,11.60
2023-02-05T06:55:46.473Z,11.00
2023-02-05T06:58:14.398Z,9.80
2023-02-05T07:00:43.356Z,15.10
2023-02-05T07:03:11.217Z,13.90
2023-02-05T07:05:39.254Z,15.30
2023-02-05T07:08:07.331Z,17.50
2023-02-05T07:10:35.399Z,15.60
2023-02-05T07:13:05.720Z,15.20
2023-02-05T07:15:37.655Z,15.20
2023-02-05T07:18:06.858Z,18.60
2023-02-05T07:20:34.902Z,13.30
2023-02-05T07:23:02.871Z,14.50
2023-02-05T07:25:36.488Z,14.30
2023-02-05T07:28:07.616Z,17.00
2023-02-05T07:30:37.546Z,14.50
2023-02-05T07:33:05.661Z,16.20
2023-02-05T07:35:38.093Z,15.70
2023-02-05T07:38:06.245Z,16.30
2023-02-05T07:40:34.224Z,15.00
2023-02-05T07:43:02.100Z,14.80
2023-02-05T07:45:30.007Z,14.30
2023-02-05T07:47:57.953Z,14.70
2023-02-05T07:50:25.841Z,15.70
2023-02-05T07:52:53.931Z,15.70
2023-02-05T07:55:21.848Z,13.30
2023-02-05T07:57:49.832Z,15.00
2023-02-05T08:00:18.108Z,14.40
2023-02-05T08:02:46.103Z,11.80
2023-02-05T08:05:14.226Z,10.00
2023-02-05T08:07:42.259Z,11.40
2023-02-05T08:10:14.029Z,14.30
2023-02-05T08:12:42.107Z,13.30
2023-02-05T08:15:13.257Z,12.30
2023-02-05T08:17:41.490Z,11.80
2023-02-05T08:20:11.030Z,10.40
2023-02-05T08:22:41.999Z,15.60
2023-02-05T08:25:14.445Z,12.70
2023-02-05T08:27:44.405Z,12.80
2023-02-05T08:30:16.504Z,14.00
2023-02-05T08:32:49.462Z,11.30
2023-02-05T08:35:18.115Z,11.70
2023-02-05T08:37:46.203Z,12.80
2023-02-05T08:40:14.202Z,12.30
2023-02-05T08:42:42.142Z,11.60
2023-02-05T08:45:10.542Z,10.40
2023-02-05T08:47:38.560Z,11.80
2023-02-05T08:50:07.498Z,11.90
2023-02-05T08:52:35.436Z,14.00
2023-02-05T08:55:04.623Z,14.70
2023-02-05T08:57:32.546Z,14.20
2023-02-05T09:00:00.535Z,10.40
2023-02-05T09:02:31.127Z,17.60
2023-02-05T09:05:08.537Z,14.50
2023-02-05T09:07:39.665Z,16.20
2023-02-05T09:10:13.171Z,18.00
2023-02-05T09:12:41.121Z,19.50
2023-02-05T09:15:09.948Z,19.90
2023-02-05T09:17:37.859Z,21.20
2023-02-05T09:20:06.232Z,16.90
2023-02-05T09:22:34.343Z,15.40
2023-02-05T09:25:02.393Z,16.80
2023-02-05T09:27:31.025Z,14.10
2023-02-05T09:29:58.944Z,13.90
2023-02-05T09:32:26.886Z,18.00
2023-02-05T09:34:54.895Z,18.60
2023-02-05T09:37:22.940Z,15.60
2023-02-05T09:43:03.431Z,18.00
2023-02-05T09:45:59.658Z,16.10
2023-02-05T09:48:51.711Z,15.00
2023-02-05T09:51:35.646Z,13.50
2023-02-05T09:54:13.519Z,19.80
2023-02-05T09:56:44.845Z,16.10
2023-02-05T09:59:21.631Z,16.90
2023-02-05T10:01:56.711Z,12.70
2023-02-05T10:04:26.301Z,19.80
2023-02-05T10:07:12.765Z,13.70
2023-02-05T10:10:07.535Z,14.70
2023-02-05T10:13:06.888Z,13.40
2023-02-05T10:15:56.444Z,14.60
2023-02-05T10:19:05.685Z,12.70
2023-02-05T10:22:04.066Z,15.00
2023-02-05T10:24:31.986Z,20.30
2023-02-05T10:27:28.329Z,17.80
2023-02-05T10:30:19.085Z,16.10
2023-02-05T10:33:16.705Z,17.40
2023-02-05T10:36:02.739Z,17.10
2023-02-05T10:38:37.055Z,21.00
2023-02-05T10:41:22.082Z,19.70
2023-02-05T10:44:29.087Z,17.90
2023-02-05T10:47:29.440Z,19.30
2023-02-05T10:50:07.842Z,17.20
2023-02-05T10:52:35.765Z,17.80
2023-02-05T10:55:03.979Z,23.70
2023-02-05T10:57:35.705Z,20.00
2023-02-05T11:00:18.572Z,21.30
2023-02-05T11:02:58.811Z,20.50
2023-02-05T11:05:38.814Z,21.00
2023-02-05T11:08:44.301Z,21.90
2023-02-05T11:11:29.474Z,19.60
2023-02-05T11:14:07.864Z,25.20
2023-02-05T11:16:48.659Z,24.10
2023-02-05T11:19:27.825Z,24.90
2023-02-05T11:22:03.496Z,23.00
2023-02-05T11:24:41.729Z,24.80
2023-02-05T11:27:15.841Z,17.90
2023-02-05T11:29:44.145Z,24.50
2023-02-05T11:32:34.306Z,24.60
2023-02-05T11:35:28.277Z,20.20
2023-02-05T11:38:06.919Z,17.40
2023-02-05T11:40:36.973Z,13.70
2023-02-05T11:43:17.472Z,13.80
2023-02-05T11:45:52.650Z,13.70
2023-02-05T11:48:44.119Z,12.80
2023-02-05T11:51:16.105Z,11.90
2023-02-05T11:53:59.919Z,12.30
2023-02-05T11:56:28.033Z,6.80
2023-02-05T11:59:06.598Z,9.70
2023-02-05T12:01:36.170Z,7.90
2023-02-05T12:04:06.774Z,8.50
2023-02-05T12:06:55.063Z,6.10
2023-02-05T12:09:27.456Z,6.40
2023-02-05T12:12:21.617Z,8.10
2023-02-05T12:15:02.688Z,2.90
2023-02-05T12:17:41.627Z,3.30
2023-02-05T12:20:18.086Z,3.60
2023-02-05T12:23:15.433Z,4.30
2023-02-05T12:26:01.386Z,3.20
2023-02-05T12:28:50.506Z,3.50
2023-02-05T12:31:43.442Z,2.80
2023-02-05T12:34:24.639Z,4.00
2023-02-05T12:37:12.763Z,4.90
2023-02-05T12:40:01.691Z,4.60
2023-02-05T12:42:36.647Z,3.80
2023-02-05T12:45:52.480Z,3.50
2023-02-05T12:48:42.241Z,3.00
2023-02-05T12:51:36.454Z,3.20
2023-02-05T12:54:35.319Z,2.40
2023-02-05T12:57:14.496Z,2.00
2023-02-05T12:59:49.721Z,2.30
2023-02-05T13:02:57.272Z,4.70
2023-02-05T13:05:34.846Z,4.10
2023-02-05T13:08:19.560Z,3.40
2023-02-05T13:10:54.722Z,3.80
2023-02-05T13:13:33.442Z,4.80
2023-02-05T13:16:14.451Z,3.00
2023-02-05T13:18:53.011Z,3.10
2023-02-05T13:21:40.226Z,4.70
2023-02-05T13:24:49.550Z,2.90
2023-02-05T13:27:51.271Z,3.30
2023-02-05T13:30:30.074Z,3.50
2023-02-05T13:33:03.110Z,4.10
2023-02-05T13:35:44.654Z,4.90
2023-02-05T13:38:27.139Z,4.30
2023-02-05T13:40:58.399Z,5.90
2023-02-05T13:43:36.048Z,3.80
2023-02-05T13:46:32.630Z,5.60
2023-02-05T13:49:34.608Z,3.40
2023-02-05T13:52:25.795Z,2.30
2023-02-05T13:55:28.929Z,2.80
2023-02-05T13:58:50.499Z,3.60
2023-02-05T14:01:29.250Z,5.00
2023-02-05T14:04:03.267Z,3.80
2023-02-05T14:06:37.812Z,2.80
2023-02-05T14:09:10.365Z,3.00
2023-02-05T14:11:58.899Z,4.20
2023-02-05T14:14:31.243Z,3.90
2023-02-05T14:17:02.668Z,3.70
2023-02-05T14:19:46.029Z,3.70
2023-02-05T14:22:44.607Z,6.10
2023-02-05T14:25:46.149Z,4.20
2023-02-05T14:28:17.090Z,5.50
2023-02-05T14:31:05.834Z,3.20
2023-02-05T14:33:43.482Z,5.50
2023-02-05T14:36:17.491Z,4.80
2023-02-05T14:38:50.990Z,4.70
2023-02-05T14:41:31.412Z,5.30
2023-02-05T14:44:18.430Z,5.40
2023-02-05T14:47:27.059Z,7.40
2023-02-05T14:50:11.233Z,6.50
2023-02-05T14:53:05.098Z,5.80
2023-02-05T14:55:43.958Z,6.60
2023-02-05T14:58:33.708Z,8.40
2023-02-05T15:01:31.451Z,5.80
2023-02-05T15:04:03.306Z,7.10
2023-02-05T15:06:42.197Z,7.40
2023-02-05T15:09:24.577Z,7.10
2023-02-05T15:12:29.296Z,9.60
2023-02-05T15:14:59.164Z,11.00
2023-02-05T15:17:30.159Z,8.00
2023-02-05T15:20:06.099Z,8.10
2023-02-05T15:23:14.713Z,10.90
2023-02-05T15:25:53.061Z,12.00
2023-02-05T15:28:58.156Z,13.70
2023-02-05T15:31:47.344Z,13.10
2023-02-05T15:34:43.112Z,16.50
2023-02-05T15:37:40.956Z,13.80
2023-02-05T15:40:20.421Z,12.40
2023-02-05T15:42:58.214Z,15.70
2023-02-05T15:45:40.571Z,16.90
2023-02-05T15:48:11.782Z,19.50
2023-02-05T15:50:59.907Z,16.90
2023-02-05T15:53:39.320Z,16.80
2023-02-05T15:56:36.302Z,20.20
2023-02-05T15:59:10.735Z,17.60
2023-02-05T16:01:51.084Z,22.30
2023-02-05T16:04:29.222Z,20.50
2023-02-05T16:06:59.930Z,23.70
2023-02-05T16:09:31.337Z,23.70
2023-02-05T16:12:13.114Z,24.80
2023-02-05T16:14:41.599Z,26.60
2023-02-05T16:17:21.490Z,23.90
2023-02-05T16:20:15.332Z,23.60
2023-02-05T16:22:52.783Z,24.40
2023-02-05T16:25:42.937Z,20.20
2023-02-05T16:28:28.450Z,16.80
2023-02-05T16:30:58.761Z,19.10
2023-02-05T16:33:42.671Z,20.90
2023-02-05T16:36:25.480Z,17.00
2023-02-05T16:39:08.100Z,23.20
2023-02-05T16:41:42.626Z,26.90
2023-02-05T16:44:30.727Z,28.90
2023-02-05T16:47:18.669Z,25.10
2023-02-05T16:49:48.641Z,25.80
2023-02-05T16:52:27.812Z,29.40
2023-02-05T16:54:55.796Z,22.90
2023-02-05T16:57:32.650Z,22.10
2023-02-05T17:00:20.635Z,24.50
2023-02-05T17:02:55.592Z,30.10
2023-02-05T17:05:34.864Z,30.10
2023-02-05T17:08:14.311Z,38.30
2023-02-05T17:10:53.895Z,37.80
2023-02-05T17:13:46.784Z,43.90
2023-02-05T17:16:30.187Z,50.80
2023-02-05T17:19:05.449Z,52.10
2023-02-05T17:21:35.971Z,50.90
2023-02-05T17:24:12.374Z,40.40
2023-02-05T17:26:44.114Z,45.30
2023-02-05T17:29:16.085Z,38.80
2023-02-05T17:31:44.207Z,34.60
2023-02-05T17:34:14.556Z,32.50
2023-02-05T17:36:42.598Z,46.10
2023-02-05T17:39:10.472Z,41.50
2023-02-05T17:41:57.951Z,42.90
2023-02-05T17:44:25.874Z,39.90
2023-02-05T17:46:54.531Z,39.70
2023-02-05T17:49:22.697Z,37.80
2023-02-05T17:51:51.182Z,44.10
2023-02-05T17:54:25.651Z,38.00
2023-02-05T17:56:57.460Z,33.10
2023-02-05T17:59:26.761Z,41.80
2023-02-05T18:01:54.836Z,27.60
2023-02-05T18:04:22.955Z,33.00
2023-02-05T18:06:51.413Z,31.90
2023-02-05T18:09:20.108Z,32.40
2023-02-05T18:11:48.060Z,26.50
2023-02-05T18:14:16.279Z,31.80
2023-02-05T18:16:45.052Z,31.10
2023-02-05T18:19:13.985Z,28.10
2023-02-05T18:21:42.059Z,31.40
2023-02-05T18:24:10.276Z,35.80
2023-02-05T18:26:38.421Z,31.20
2023-02-05T18:29:06.637Z,30.00
2023-02-05T18:31:35.422Z,28.30
2023-02-05T18:34:03.405Z,33.30
2023-02-05T18:36:31.442Z,33.00
2023-02-05T18:38:59.970Z,32.00
2023-02-05T18:41:28.745Z,32.90
2023-02-05T18:43:57.461Z,28.00
2023-02-05T18:46:25.982Z,34.90
2023-02-05T18:48:55.406Z,29.70
2023-02-05T18:51:24.504Z,33.00
2023-02-05T18:53:55.703Z,31.20
2023-02-05T18:56:27.468Z,27.30
2023-02-05T18:59:03.292Z,31.80
2023-02-05T19:01:34.887Z,25.70
2023-02-05T19:04:07.745Z,28.20
2023-02-05T19:06:36.317Z,26.10
2023-02-05T19:09:04.868Z,30.30
2023-02-05T19:11:34.202Z,32.60
2023-02-05T19:14:05.774Z,38.50
2023-02-05T19:16:36.050Z,28.50
2023-02-05T19:19:05.597Z,34.00
2023-02-05T19:21:34.660Z,36.20
2023-02-05T19:24:09.791Z,33.60
2023-02-05T19:26:44.191Z,35.70
2023-02-05T19:29:16.686Z,34.70
2023-02-05T19:31:45.564Z,36.60
2023-02-05T19:34:14.689Z,33.00
2023-02-05T19:36:43.261Z,24.20
2023-02-05T19:39:16.691Z,31.70
2023-02-05T19:41:45.870Z,35.90
2023-02-05T19:44:13.872Z,36.00
2023-02-05T19:46:48.889Z,37.40
2023-02-05T19:49:20.770Z,38.70
2023-02-05T19:51:54.487Z,39.30
2023-02-05T19:54:23.566Z,39.50
2023-02-05T19:56:52.020Z,38.00
2023-02-05T19:59:21.128Z,37.10
2023-02-05T20:01:50.105Z,39.40
2023-02-05T20:04:24.977Z,38.50
2023-02-05T20:06:59.800Z,29.70
2023-02-05T20:09:28.412Z,28.80
2023-02-05T20:11:56.516Z,38.70
2023-02-05T20:14:25.039Z,37.00
2023-02-05T20:16:53.638Z,34.10
2023-02-05T20:19:22.236Z,42.80
2023-02-05T20:21:50.635Z,39.40
2023-02-05T20:24:18.569Z,40.40
2023-02-05T20:26:53.124Z,29.20
2023-02-05T20:29:40.035Z,33.50
2023-02-05T20:32:09.007Z,38.60
2023-02-05T20:34:39.643Z,35.60
2023-02-05T20:37:09.579Z,33.20
2023-02-05T20:39:42.068Z,33.20
2023-02-05T20:42:16.473Z,28.20
2023-02-05T20:44:44.842Z,34.90
2023-02-05T20:47:14.852Z,30.50
2023-02-05T20:49:43.195Z,30.50
2023-02-05T20:52:13.965Z,32.10
2023-02-05T20:54:42.202Z,29.10
2023-02-05T20:57:10.396Z,28.80
2023-02-05T20:59:38.892Z,26.00
2023-02-05T21:02:07.506Z,30.60
2023-02-05T21:04:37.081Z,29.90
2023-02-05T21:07:05.646Z,26.70
2023-02-05T21:09:33.746Z,26.60
2023-02-05T21:12:02.094Z,29.40
2023-02-05T21:14:30.449Z,34.90
2023-02-05T21:17:00.260Z,31.80
2023-02-05T21:19:28.364Z,33.80
2023-02-05T21:21:56.432Z,29.30
2023-02-05T21:24:24.578Z,31.70
2023-02-05T21:26:52.523Z,29.40
2023-02-05T21:29:21.649Z,29.50
2023-02-05T21:31:55.596Z,24.40
2023-02-05T21:34:27.992Z,25.40
2023-02-05T21:36:57.261Z,20.80
2023-02-05T21:39:28.597Z,21.10
2023-02-05T21:41:57.145Z,22.10
2023-02-05T21:44:27.777Z,19.20
2023-02-05T21:46:56.272Z,25.40
2023-02-05T21:49:24.860Z,17.70
2023-02-05T21:51:53.454Z,20.80
2023-02-05T21:54:25.659Z,13.90
2023-02-05T21:56:54.483Z,15.70
2023-02-05T21:59:22.661Z,18.90
2023-02-05T22:01:51.204Z,15.70
2023-02-05T22:04:19.436Z,19.30
2023-02-05T22:06:47.547Z,18.10
2023-02-05T22:09:16.893Z,16.00
2023-02-05T22:11:49.132Z,20.80
2023-02-05T22:14:17.614Z,18.60
2023-02-05T22:16:45.974Z,12.60
2023-02-05T22:19:14.057Z,18.90
2023-02-05T22:21:43.238Z,15.20
2023-02-05T22:24:16.666Z,18.70
2023-02-05T22:26:46.727Z,16.60
2023-02-05T22:29:20.420Z,18.70
2023-02-05T22:31:54.227Z,21.10
2023-02-05T22:34:22.655Z,23.80
2023-02-05T22:36:50.583Z,22.50
2023-02-05T22:39:18.632Z,19.90
2023-02-05T22:41:46.693Z,18.60
2023-02-05T22:44:14.542Z,19.60
2023-02-05T22:46:44.656Z,19.40
2023-02-05T22:49:16.800Z,15.70
2023-02-05T22:51:46.343Z,21.50
2023-02-05T22:54:15.384Z,10.00
2023-02-05T22:56:43.906Z,26.50
2023-02-05T22:59:12.594Z,17.80
2023-02-05T23:01:40.715Z,15.50
2023-02-05T23:04:09.704Z,23.40
2023-02-05T23:06:42.132Z,21.00
2023-02-05T23:09:17.891Z,24.80
2023-02-05T23:11:46.755Z,18.80
2023-02-05T23:14:17.366Z,24.30
2023-02-05T23:16:47.433Z,20.90
2023-02-05T23:19:22.469Z,21.10
2023-02-05T23:21:50.469Z,21.90
2023-02-05T23:24:19.376Z,19.20
2023-02-05T23:26:50.948Z,22.10
2023-02-05T23:29:20.234Z,22.90
2023-02-05T23:31:48.150Z,26.60
2023-02-05T23:34:16.059Z,20.00
2023-02-05T23:36:43.968Z,15.70
2023-02-05T23:39:11.884Z,20.30
2023-02-05T23:41:40.149Z,19.50
2023-02-05T23:44:18.300Z,12.00
2023-02-05T23:46:49.130Z,15.70
2023-02-05T23:49:23.236Z,24.20
2023-02-05T23:51:54.833Z,16.30
2023-02-05T23:54:24.184Z,19.50
2023-02-05T23:56:52.349Z,17.50
2023-02-05T23:59:20.228Z,12.60
